Time;durP1;ratioP1;P1;durP2;ratioP2;P2;SDS_P1;SDS_P2;PMS_P1;PMS_P2;Temp;Humidity;BMP_temperature;BMP_pressure;BME280_temperature;BME280_humidity;BME280_pressure;Samples;Min_cycle;Max_cycle;Signal;HPM_P1;HPM_P2
2022/03/19 00:02:11;;;;;;;7.57;3.08;;;10.00;43.00;;;;;;5024996;28;20076;-44
2022/03/19 00:04:39;;;;;;;7.32;2.60;;;10.00;43.00;;;;;;5021664;28;20060;-42
2022/03/19 00:07:06;;;;;;;7.25;2.88;;;9.90;43.00;;;;;;5024523;28;20045;-42
2022/03/19 00:09:34;;;;;;;7.70;2.97;;;9.90;43.00;;;;;;5025040;28;20057;-42
2022/03/19 00:12:03;;;;;;;8.13;2.38;;;9.90;43.10;;;;;;5023049;28;20053;-43
2022/03/19 00:14:31;;;;;;;8.63;2.50;;;9.80;43.10;;;;;;5021750;28;20049;-43
2022/03/19 00:17:00;;;;;;;5.85;2.60;;;9.80;43.20;;;;;;5023884;28;20069;-42
2022/03/19 00:19:29;;;;;;;7.95;2.72;;;9.80;43.20;;;;;;5022690;28;20045;-47
2022/03/19 00:21:57;;;;;;;10.75;2.90;;;9.80;43.30;;;;;;5024961;28;20061;-44
2022/03/19 00:24:24;;;;;;;10.90;3.28;;;9.70;43.30;;;;;;5021131;28;20409;-44
2022/03/19 00:26:52;;;;;;;7.40;2.58;;;9.70;43.40;;;;;;5022322;28;20053;-42
2022/03/19 00:29:19;;;;;;;7.88;2.45;;;9.70;43.40;;;;;;5023819;28;20053;-43
2022/03/19 00:31:47;;;;;;;6.90;2.53;;;9.70;43.50;;;;;;5022966;28;20417;-42
2022/03/19 00:34:16;;;;;;;6.32;2.35;;;9.70;43.60;;;;;;5020015;28;21133;-42
2022/03/19 00:36:43;;;;;;;8.18;2.80;;;9.60;43.60;;;;;;5023874;28;20049;-42
2022/03/19 00:39:11;;;;;;;9.43;2.88;;;9.60;43.60;;;;;;5023138;28;20058;-43
2022/03/19 00:41:38;;;;;;;6.35;2.50;;;9.60;43.70;;;;;;5023514;28;20056;-42
2022/03/19 00:44:07;;;;;;;10.23;2.97;;;9.50;44.20;;;;;;5021218;28;20053;-43
2022/03/19 00:46:35;;;;;;;7.80;2.80;;;9.50;43.80;;;;;;5023035;28;20061;-42
2022/03/19 00:49:02;;;;;;;4.90;2.58;;;9.50;43.90;;;;;;5022264;28;20077;-45
2022/03/19 00:51:32;;;;;;;7.43;3.10;;;9.50;44.00;;;;;;5022566;28;20049;-43
2022/03/19 00:54:00;;;;;;;13.95;3.45;;;9.50;44.10;;;;;;5019747;28;20049;-42
2022/03/19 00:56:27;;;;;;;6.55;2.70;;;9.40;44.10;;;;;;5024077;28;20049;-42
2022/03/19 00:58:55;;;;;;;5.55;2.67;;;9.40;44.20;;;;;;5023637;28;20072;-42
2022/03/19 01:01:23;;;;;;;7.15;2.40;;;9.40;44.20;;;;;;5024136;28;20787;-43
2022/03/19 01:03:50;;;;;;;9.07;2.75;;;9.40;44.20;;;;;;5020968;28;20065;-42
2022/03/19 01:06:18;;;;;;;7.88;3.10;;;9.30;44.20;;;;;;5023039;28;20501;-42
2022/03/19 01:08:46;;;;;;;5.55;2.58;;;9.30;44.20;;;;;;5022347;28;20050;-47
2022/03/19 01:11:14;;;;;;;5.22;2.53;;;9.20;44.20;;;;;;5021605;28;20049;-42
2022/03/19 01:13:42;;;;;;;11.25;2.83;;;9.30;44.30;;;;;;5021751;28;20482;-43
2022/03/19 01:16:09;;;;;;;8.63;2.85;;;9.20;44.40;;;;;;5021755;28;20053;-42
2022/03/19 01:18:37;;;;;;;8.38;3.03;;;9.20;44.60;;;;;;5022501;28;20054;-43
2022/03/19 01:21:04;;;;;;;7.90;3.20;;;9.20;44.80;;;;;;5022737;28;20498;-42
2022/03/19 01:23:32;;;;;;;5.72;2.65;;;9.20;44.80;;;;;;5021350;28;20081;-42
2022/03/19 01:26:01;;;;;;;7.10;2.75;;;9.10;44.90;;;;;;5022744;28;20518;-42
2022/03/19 01:28:28;;;;;;;9.57;2.70;;;9.10;44.90;;;;;;5022847;28;20413;-46
2022/03/19 01:30:55;;;;;;;6.82;2.88;;;9.10;45.00;;;;;;5021933;28;20053;-44
2022/03/19 01:33:23;;;;;;;8.30;3.55;;;9.00;45.10;;;;;;5022553;28;20049;-42
2022/03/19 01:35:51;;;;;;;6.75;2.58;;;9.00;45.20;;;;;;5019787;28;20060;-43
2022/03/19 01:38:18;;;;;;;16.48;3.55;;;9.00;45.30;;;;;;5022359;28;20049;-42
2022/03/19 01:40:46;;;;;;;11.18;2.83;;;9.00;45.50;;;;;;5023147;28;20413;-43
2022/03/19 01:43:15;;;;;;;5.53;2.80;;;9.00;45.70;;;;;;5021568;28;20057;-42
2022/03/19 01:45:42;;;;;;;5.97;2.78;;;9.00;45.80;;;;;;5019176;28;20045;-43
2022/03/19 01:48:10;;;;;;;8.77;2.75;;;9.00;45.80;;;;;;5022875;28;20060;-45
2022/03/19 01:50:37;;;;;;;8.57;3.08;;;9.00;45.90;;;;;;5020735;28;20053;-42
2022/03/19 01:53:05;;;;;;;6.28;3.10;;;8.90;46.00;;;;;;5021288;28;20808;-43
2022/03/19 01:55:33;;;;;;;9.63;3.40;;;8.90;46.00;;;;;;5020519;28;20057;-42
2022/03/19 01:58:03;;;;;;;9.07;3.10;;;8.90;46.10;;;;;;5022655;28;20053;-43
2022/03/19 02:00:31;;;;;;;9.60;3.95;;;8.90;46.20;;;;;;5020935;28;20069;-42
2022/03/19 02:02:59;;;;;;;8.00;3.05;;;8.90;46.20;;;;;;5022355;28;20060;-43
2022/03/19 02:05:26;;;;;;;7.78;3.22;;;8.90;46.20;;;;;;5018417;28;20056;-42
2022/03/19 02:07:54;;;;;;;7.65;2.83;;;8.90;46.30;;;;;;5022686;28;20057;-42
2022/03/19 02:10:23;;;;;;;13.68;3.53;;;8.90;46.50;;;;;;5022719;28;20550;-44
2022/03/19 02:12:55;;;;;;;8.70;2.80;;;8.90;46.60;;;;;;5022343;28;20058;-42
2022/03/19 02:15:23;;;;;;;12.57;3.83;;;8.90;46.60;;;;;;5018726;28;20053;-45
2022/03/19 02:17:52;;;;;;;13.88;3.42;;;8.90;46.60;;;;;;5023139;28;20540;-42
2022/03/19 02:20:19;;;;;;;8.05;3.08;;;8.90;46.60;;;;;;5021241;28;20422;-45
2022/03/19 02:25:36;;;;;;;9.90;3.13;;;8.90;46.60;;;;;;5020299;28;20037;-43
2022/03/19 02:28:04;;;;;;;8.85;3.25;;;8.80;46.60;;;;;;5020247;28;20096;-42
2022/03/19 02:30:32;;;;;;;9.32;3.13;;;8.80;46.70;;;;;;5019507;28;20573;-43
2022/03/19 02:33:00;;;;;;;8.35;3.00;;;8.80;46.80;;;;;;5020333;28;20064;-47
2022/03/19 02:35:28;;;;;;;10.70;3.13;;;8.80;46.90;;;;;;5019466;28;20056;-42
2022/03/19 02:37:56;;;;;;;6.35;3.33;;;8.80;46.90;;;;;;5017252;28;20062;-43
2022/03/19 02:40:23;;;;;;;12.75;3.03;;;8.80;46.90;;;;;;5020790;28;20548;-42
2022/03/19 02:42:54;;;;;;;10.35;2.58;;;8.80;46.90;;;;;;5021552;28;20072;-42
2022/03/19 02:45:23;;;;;;;4.70;2.42;;;8.80;46.90;;;;;;5019054;28;20046;-44
2022/03/19 02:48:00;;;;;;;7.15;2.60;;;8.80;46.90;;;;;;5021861;28;20409;-44
2022/03/19 02:50:31;;;;;;;7.30;2.90;;;8.80;47.00;;;;;;5020307;28;20494;-42
2022/03/19 02:52:59;;;;;;;6.47;2.97;;;8.80;47.00;;;;;;5019264;28;20437;-42
2022/03/19 02:55:32;;;;;;;10.90;3.00;;;8.80;47.10;;;;;;5020522;28;20064;-43
2022/03/19 02:58:00;;;;;;;6.15;2.80;;;8.70;47.10;;;;;;5022684;28;20057;-43
2022/03/19 03:00:28;;;;;;;5.53;2.35;;;8.70;47.10;;;;;;5022879;28;20060;-45
2022/03/19 03:02:56;;;;;;;6.50;2.60;;;8.70;47.10;;;;;;5022843;28;20049;-43
2022/03/19 03:05:23;;;;;;;10.27;3.05;;;8.70;47.10;;;;;;5018739;28;20049;-42
2022/03/19 03:07:50;;;;;;;9.50;3.13;;;8.70;47.10;;;;;;5021333;28;20068;-42
2022/03/19 03:10:19;;;;;;;7.88;2.88;;;8.70;47.20;;;;;;5021149;28;20075;-42
2022/03/19 03:12:47;;;;;;;5.55;2.60;;;8.70;47.20;;;;;;5021172;28;20057;-42
2022/03/19 03:15:16;;;;;;;9.48;3.17;;;8.60;47.20;;;;;;5023229;28;20056;-45
2022/03/19 03:17:43;;;;;;;7.20;2.80;;;8.60;47.30;;;;;;5025965;28;20091;-42
2022/03/19 03:20:11;;;;;;;9.82;3.05;;;8.60;47.20;;;;;;5024013;28;20057;-42
2022/03/19 03:22:42;;;;;;;8.38;2.38;;;8.60;47.20;;;;;;5021112;28;20050;-42
2022/03/19 03:25:10;;;;;;;8.27;3.10;;;8.60;47.20;;;;;;5024170;28;20045;-43
2022/03/19 03:27:38;;;;;;;8.02;2.85;;;8.60;47.30;;;;;;5025430;28;20068;-44
2022/03/19 03:30:07;;;;;;;9.55;3.00;;;8.60;47.30;;;;;;5025584;28;20389;-42
2022/03/19 03:32:35;;;;;;;12.30;2.80;;;8.60;47.30;;;;;;5020720;28;20413;-42
2022/03/19 03:35:03;;;;;;;6.47;2.17;;;8.60;47.40;;;;;;5021681;28;20049;-42
2022/03/19 03:37:30;;;;;;;8.05;2.85;;;8.60;47.40;;;;;;5022868;28;20060;-44
2022/03/19 03:39:58;;;;;;;6.30;2.58;;;8.50;47.50;;;;;;5023632;28;20060;-42
2022/03/19 03:42:32;;;;;;;6.63;2.33;;;8.50;47.50;;;;;;5024119;28;20628;-43
2022/03/19 03:45:00;;;;;;;7.47;3.08;;;8.50;47.50;;;;;;5023088;28;20045;-43
2022/03/19 03:47:28;;;;;;;9.15;2.85;;;8.50;47.50;;;;;;5022984;28;20064;-43
2022/03/19 03:49:57;;;;;;;12.50;3.17;;;8.50;47.50;;;;;;5023934;28;20065;-44
2022/03/19 03:52:24;;;;;;;5.65;2.22;;;8.50;47.50;;;;;;5024601;28;20434;-42
2022/03/19 03:54:52;;;;;;;4.82;2.33;;;8.50;47.50;;;;;;5019133;28;20050;-42
2022/03/19 03:57:20;;;;;;;6.32;2.75;;;8.50;47.40;;;;;;5023213;28;20057;-43
2022/03/19 03:59:48;;;;;;;5.03;2.20;;;8.50;47.40;;;;;;5020969;28;20061;-42
2022/03/19 04:02:16;;;;;;;11.13;2.30;;;8.40;47.40;;;;;;5024819;28;20057;-42
2022/03/19 04:04:43;;;;;;;6.00;2.72;;;8.40;47.40;;;;;;5020651;28;20430;-42
2022/03/19 04:07:12;;;;;;;7.35;2.60;;;8.40;47.50;;;;;;5025068;28;20057;-42
2022/03/19 04:09:40;;;;;;;10.45;3.20;;;8.40;47.50;;;;;;5023836;28;20490;-42
2022/03/19 04:12:09;;;;;;;8.38;2.80;;;8.40;47.50;;;;;;5024448;28;20057;-42
2022/03/19 04:14:36;;;;;;;6.55;2.03;;;8.40;47.60;;;;;;5024208;28;20060;-42
2022/03/19 04:17:04;;;;;;;9.10;2.53;;;8.40;47.60;;;;;;5024030;28;20417;-42
2022/03/19 04:19:32;;;;;;;5.25;2.33;;;8.40;47.50;;;;;;5021756;28;20049;-44
2022/03/19 04:21:59;;;;;;;14.63;4.68;;;8.40;47.50;;;;;;5024367;28;20062;-42
2022/03/19 04:24:28;;;;;;;10.68;2.80;;;8.30;47.60;;;;;;5020125;28;20057;-42
2022/03/19 04:26:56;;;;;;;6.60;2.55;;;8.30;47.60;;;;;;5021662;28;20054;-42
2022/03/19 04:29:24;;;;;;;7.40;2.58;;;8.30;47.70;;;;;;5023031;28;20061;-42
2022/03/19 04:31:51;;;;;;;7.03;2.70;;;8.30;47.70;;;;;;5023883;28;20057;-42
2022/03/19 04:34:19;;;;;;;7.45;2.47;;;8.30;47.70;;;;;;5019415;28;20060;-42
2022/03/19 04:36:46;;;;;;;7.50;2.60;;;8.20;47.70;;;;;;5021784;28;20124;-46
2022/03/19 04:39:13;;;;;;;8.68;2.83;;;8.30;47.80;;;;;;5023282;28;20049;-42
2022/03/19 04:41:42;;;;;;;7.22;2.30;;;8.20;47.80;;;;;;5023592;28;20050;-43
2022/03/19 04:44:10;;;;;;;6.72;2.50;;;8.20;47.80;;;;;;5023649;28;20057;-42
2022/03/19 04:46:37;;;;;;;12.77;2.10;;;8.20;47.80;;;;;;5021751;28;20049;-46
2022/03/19 04:49:05;;;;;;;6.70;2.30;;;8.20;47.80;;;;;;5020943;28;20099;-42
2022/03/19 04:51:34;;;;;;;5.47;2.58;;;8.20;47.90;;;;;;5024246;28;20508;-43
2022/03/19 04:54:02;;;;;;;8.90;2.65;;;8.20;47.90;;;;;;5022659;28;20115;-42
2022/03/19 04:56:31;;;;;;;10.68;3.75;;;8.20;48.00;;;;;;5022211;28;20053;-43
2022/03/19 04:59:01;;;;;;;10.18;3.38;;;8.10;48.00;;;;;;5022967;28;20061;-42
2022/03/19 05:01:30;;;;;;;6.70;2.70;;;8.10;48.10;;;;;;5022328;28;20410;-42
2022/03/19 05:03:58;;;;;;;6.55;2.38;;;8.10;48.10;;;;;;5020857;28;20057;-42
2022/03/19 05:06:26;;;;;;;10.85;2.80;;;8.10;48.10;;;;;;5023280;28;20053;-42
2022/03/19 05:11:35;;;;;;;6.82;2.50;;;8.10;48.30;;;;;;5019618;28;20050;-42
2022/03/19 05:14:04;;;;;;;6.47;2.45;;;8.10;48.20;;;;;;5021910;28;20049;-42
2022/03/19 05:16:32;;;;;;;5.50;2.47;;;8.00;48.20;;;;;;5019735;28;20049;-42
2022/03/19 05:18:59;;;;;;;4.53;2.55;;;8.00;48.20;;;;;;5020589;28;20068;-43
2022/03/19 05:21:27;;;;;;;5.95;2.50;;;8.00;48.20;;;;;;5023697;28;20083;-42
2022/03/19 05:23:54;;;;;;;5.07;2.25;;;8.00;48.20;;;;;;5022028;28;20072;-44
2022/03/19 05:26:22;;;;;;;8.60;2.40;;;8.00;48.30;;;;;;5020595;28;20052;-43
2022/03/19 05:28:49;;;;;;;8.52;2.58;;;8.00;48.30;;;;;;5021386;28;20050;-42
2022/03/19 05:31:18;;;;;;;7.60;2.38;;;8.00;48.40;;;;;;5017412;28;20409;-42
2022/03/19 05:36:30;;;;;;;7.22;2.70;;;7.90;48.50;;;;;;5027830;28;20056;-43
2022/03/19 05:38:58;;;;;;;12.43;3.50;;;7.90;49.10;;;;;;5021528;28;20426;-43
2022/03/19 05:41:25;;;;;;;7.13;2.47;;;7.90;48.60;;;;;;5022003;28;20041;-44
2022/03/19 05:43:53;;;;;;;7.03;2.67;;;7.90;48.70;;;;;;5019723;28;20064;-42
2022/03/19 05:46:22;;;;;;;8.68;2.42;;;7.90;48.70;;;;;;5018274;28;20045;-43
2022/03/19 05:48:49;;;;;;;6.40;2.50;;;7.90;48.80;;;;;;5020703;28;20057;-42
2022/03/19 05:51:16;;;;;;;3.35;2.05;;;7.90;48.80;;;;;;5022021;28;20054;-44
2022/03/19 05:53:44;;;;;;;8.35;2.63;;;7.90;48.80;;;;;;5021539;28;20449;-42
2022/03/19 05:56:11;;;;;;;5.93;2.63;;;7.90;48.80;;;;;;5020702;28;20053;-47
2022/03/19 05:58:39;;;;;;;6.35;2.53;;;7.90;49.00;;;;;;5021473;28;20072;-42
2022/03/19 06:01:06;;;;;;;5.25;1.95;;;7.90;49.00;;;;;;5020504;28;20046;-42
2022/03/19 06:03:35;;;;;;;8.23;2.33;;;7.90;49.00;;;;;;5017530;28;20430;-44
2022/03/19 06:06:04;;;;;;;7.05;2.55;;;7.90;49.10;;;;;;5020697;28;20057;-43
2022/03/19 06:08:31;;;;;;;7.63;2.42;;;7.90;49.10;;;;;;5019218;28;20049;-42
2022/03/19 06:10:59;;;;;;;6.13;2.47;;;7.90;49.00;;;;;;5022573;28;20053;-42
2022/03/19 06:13:27;;;;;;;6.05;2.45;;;7.90;49.10;;;;;;5020220;28;20568;-42
2022/03/19 06:15:54;;;;;;;5.07;2.20;;;7.90;49.10;;;;;;5020580;28;20049;-43
2022/03/19 06:18:22;;;;;;;7.80;2.80;;;8.00;49.10;;;;;;5020788;28;20053;-43
2022/03/19 06:20:51;;;;;;;9.02;2.47;;;8.00;49.20;;;;;;5018181;28;20383;-42
2022/03/19 06:23:20;;;;;;;6.25;2.60;;;8.00;49.20;;;;;;5018005;28;20058;-43
2022/03/19 06:25:47;;;;;;;7.75;2.55;;;8.00;49.20;;;;;;5011149;28;20049;-42
2022/03/19 06:28:15;;;;;;;8.77;2.05;;;8.00;49.30;;;;;;5018029;28;20046;-42
2022/03/19 06:30:43;;;;;;;7.75;2.53;;;8.10;49.40;;;;;;5020642;28;20063;-43
2022/03/19 06:33:11;;;;;;;4.88;2.28;;;8.10;49.40;;;;;;5018346;28;20056;-42
2022/03/19 06:38:23;;;;;;;9.57;3.08;;;8.20;49.50;;;;;;4988526;28;20045;-42
2022/03/19 06:40:51;;;;;;;9.35;2.80;;;8.20;49.60;;;;;;5018842;28;20053;-42
2022/03/19 06:43:22;;;;;;;7.93;2.70;;;8.30;49.60;;;;;;5018618;28;20056;-42
2022/03/19 06:45:49;;;;;;;8.27;2.85;;;8.30;49.70;;;;;;5015996;28;20732;-42
2022/03/19 06:48:17;;;;;;;7.05;2.40;;;8.30;49.70;;;;;;5024360;28;20069;-42
2022/03/19 06:50:45;;;;;;;8.43;3.10;;;8.30;49.70;;;;;;5024241;28;20067;-48
2022/03/19 06:53:12;;;;;;;10.45;3.30;;;8.30;49.80;;;;;;5021612;28;20060;-44
2022/03/19 06:55:41;;;;;;;9.38;2.88;;;8.40;50.20;;;;;;5023892;28;20057;-43
2022/03/19 06:58:09;;;;;;;10.52;2.97;;;8.40;50.20;;;;;;5024816;28;20067;-42
2022/03/19 07:00:37;;;;;;;9.13;3.10;;;8.40;50.10;;;;;;5023724;28;20057;-42
2022/03/19 07:03:04;;;;;;;12.77;3.15;;;8.50;50.20;;;;;;5024007;28;20050;-42
2022/03/19 07:05:32;;;;;;;8.70;2.55;;;8.50;50.40;;;;;;5021112;28;20514;-42
2022/03/19 07:08:01;;;;;;;10.88;2.88;;;8.60;50.30;;;;;;5021811;28;20050;-43
2022/03/19 07:10:29;;;;;;;9.95;2.78;;;8.60;50.30;;;;;;5024210;28;20056;-44
2022/03/19 07:12:58;;;;;;;7.60;2.47;;;8.70;50.20;;;;;;5024655;28;20049;-42
2022/03/19 07:15:28;;;;;;;8.02;2.80;;;8.70;50.10;;;;;;5020220;28;20057;-42
2022/03/19 07:17:57;;;;;;;15.57;3.40;;;8.80;50.10;;;;;;5020490;28;20092;-42
2022/03/19 07:20:24;;;;;;;13.75;3.15;;;8.80;50.00;;;;;;5021591;28;22680;-42
2022/03/19 07:22:53;;;;;;;7.95;3.05;;;8.90;50.30;;;;;;5024341;28;20532;-43
2022/03/19 07:25:24;;;;;;;10.65;3.47;;;8.90;50.20;;;;;;5021493;28;20053;-42
2022/03/19 07:27:53;;;;;;;8.02;3.00;;;9.00;50.30;;;;;;5023704;28;20049;-43
2022/03/19 07:30:22;;;;;;;11.65;3.55;;;9.00;50.10;;;;;;5024705;28;20057;-42
2022/03/19 07:32:51;;;;;;;10.55;3.47;;;9.00;50.10;;;;;;5022344;28;20521;-42
2022/03/19 07:35:18;;;;;;;11.75;2.83;;;9.10;50.20;;;;;;5020359;28;20049;-44
2022/03/19 07:37:46;;;;;;;9.13;3.10;;;9.20;50.10;;;;;;5022200;28;20053;-42
2022/03/19 07:40:15;;;;;;;9.75;3.63;;;9.20;50.10;;;;;;5023103;28;20057;-42
2022/03/19 07:42:42;;;;;;;11.30;3.45;;;9.20;50.10;;;;;;5020423;28;20069;-43
2022/03/19 07:45:10;;;;;;;15.32;4.55;;;9.30;50.00;;;;;;5022100;28;20053;-44
2022/03/19 07:47:39;;;;;;;9.55;4.15;;;9.40;50.00;;;;;;5023441;28;20045;-42
2022/03/19 07:50:07;;;;;;;9.63;4.35;;;9.40;50.00;;;;;;5022709;28;20049;-41
2022/03/19 07:52:34;;;;;;;9.82;3.33;;;9.50;50.00;;;;;;5022855;28;20049;-42
2022/03/19 07:55:02;;;;;;;13.68;4.03;;;9.50;50.00;;;;;;5020368;28;20053;-43
2022/03/19 07:57:29;;;;;;;11.25;3.65;;;9.60;50.00;;;;;;5020903;28;20049;-42
2022/03/19 07:59:57;;;;;;;6.95;3.60;;;9.70;50.10;;;;;;5017643;28;21192;-42
2022/03/19 08:02:26;;;;;;;11.75;3.72;;;9.80;50.20;;;;;;5023612;28;20060;-42
2022/03/19 08:04:55;;;;;;;10.88;4.10;;;9.80;50.20;;;;;;5020822;28;20071;-43
2022/03/19 08:07:22;;;;;;;13.48;4.20;;;9.90;50.40;;;;;;5019709;28;20486;-44
2022/03/19 08:09:50;;;;;;;16.35;4.80;;;10.00;50.60;;;;;;5022174;28;20056;-45
2022/03/19 08:12:17;;;;;;;12.07;4.20;;;10.00;50.50;;;;;;5024520;28;20406;-42
2022/03/19 08:14:45;;;;;;;14.32;4.47;;;10.10;50.20;;;;;;5021508;28;20057;-42
2022/03/19 08:17:12;;;;;;;10.88;4.07;;;10.20;50.10;;;;;;5022079;28;20049;-43
2022/03/19 08:19:41;;;;;;;11.00;4.45;;;10.20;49.90;;;;;;5021319;28;20061;-42
2022/03/19 08:22:10;;;;;;;13.18;4.15;;;10.40;49.80;;;;;;5021103;28;20053;-42
2022/03/19 08:24:38;;;;;;;9.82;4.13;;;10.40;49.60;;;;;;5017823;28;20057;-42
2022/03/19 08:27:05;;;;;;;12.13;4.30;;;10.50;49.50;;;;;;5018468;28;20053;-44
2022/03/19 08:29:33;;;;;;;10.98;4.30;;;10.60;49.30;;;;;;5022254;28;20041;-45
2022/03/19 08:32:00;;;;;;;9.73;4.10;;;10.70;49.20;;;;;;5022009;28;20474;-43
2022/03/19 08:34:28;;;;;;;12.88;3.85;;;10.80;49.10;;;;;;5016995;28;20382;-43
2022/03/19 08:36:56;;;;;;;10.20;4.10;;;10.90;48.90;;;;;;5023516;28;20045;-42
2022/03/19 08:42:10;;;;;;;11.30;3.72;;;11.00;48.40;;;;;;5026540;28;20409;-44
2022/03/19 08:44:37;;;;;;;11.90;4.32;;;11.10;48.30;;;;;;5021085;28;20049;-42
2022/03/19 08:47:05;;;;;;;8.65;4.15;;;11.20;48.10;;;;;;5020823;28;20117;-42
2022/03/19 08:49:33;;;;;;;12.43;4.22;;;11.20;48.00;;;;;;5020133;28;20049;-42
2022/03/19 08:52:00;;;;;;;10.05;4.50;;;11.30;48.40;;;;;;5023286;28;20068;-42
2022/03/19 08:54:29;;;;;;;12.48;4.60;;;11.40;47.60;;;;;;5023514;28;20513;-43
2022/03/19 08:56:57;;;;;;;11.50;4.30;;;11.40;47.40;;;;;;5022628;28;20070;-42
2022/03/19 08:59:25;;;;;;;10.65;4.05;;;11.50;47.50;;;;;;5022498;28;20060;-44
2022/03/19 09:01:54;;;;;;;14.07;3.90;;;11.50;47.20;;;;;;5022557;28;20060;-42
2022/03/19 09:04:22;;;;;;;12.98;4.47;;;11.60;47.00;;;;;;5021010;28;20052;-42
2022/03/19 09:06:50;;;;;;;10.90;3.85;;;11.60;46.80;;;;;;5022330;28;20061;-42
2022/03/19 09:09:17;;;;;;;15.65;3.75;;;11.70;46.80;;;;;;5021620;28;20061;-42
2022/03/19 09:11:48;;;;;;;8.63;4.07;;;11.80;46.40;;;;;;5021188;28;20049;-44
2022/03/19 09:14:16;;;;;;;10.90;4.05;;;11.80;46.10;;;;;;5018645;28;20049;-42
2022/03/19 09:16:44;;;;;;;11.13;3.50;;;11.90;46.50;;;;;;5019647;28;20053;-42
2022/03/19 09:19:12;;;;;;;6.70;2.97;;;11.90;46.30;;;;;;5019048;28;20049;-46
2022/03/19 09:21:40;;;;;;;9.88;3.70;;;12.00;46.40;;;;;;5019089;28;20057;-46
2022/03/19 09:24:07;;;;;;;12.35;4.45;;;12.00;46.20;;;;;;5020248;28;20057;-42
2022/03/19 09:26:35;;;;;;;11.63;3.70;;;12.10;46.20;;;;;;5023069;28;20068;-43
2022/03/19 09:29:04;;;;;;;10.25;3.63;;;12.10;46.20;;;;;;5022766;28;20045;-42
2022/03/19 09:31:32;;;;;;;11.27;3.90;;;12.20;46.20;;;;;;5022460;28;20060;-42
2022/03/19 09:33:59;;;;;;;11.02;4.03;;;12.20;46.10;;;;;;5020004;28;20049;-42
2022/03/19 09:36:27;;;;;;;11.23;4.43;;;12.30;46.20;;;;;;5023199;28;20076;-42
2022/03/19 09:38:54;;;;;;;11.50;3.70;;;12.30;46.00;;;;;;5020801;28;20064;-42
2022/03/19 09:41:22;;;;;;;12.32;3.97;;;12.40;46.10;;;;;;5020601;28;20057;-42
2022/03/19 09:43:50;;;;;;;11.32;4.10;;;12.50;46.00;;;;;;5022910;28;20064;-44
2022/03/19 09:46:19;;;;;;;11.70;3.75;;;12.50;45.60;;;;;;5023258;28;20418;-42
2022/03/19 09:48:46;;;;;;;10.57;3.90;;;12.60;45.50;;;;;;5021819;28;20056;-44
2022/03/19 09:51:15;;;;;;;7.82;3.80;;;12.60;45.00;;;;;;5022769;28;20414;-44
2022/03/19 09:53:44;;;;;;;10.68;4.30;;;12.60;45.00;;;;;;5023042;28;20063;-42
2022/03/19 09:56:11;;;;;;;9.18;3.35;;;12.70;45.00;;;;;;5019474;28;20638;-44
2022/03/19 09:58:55;;;;;;;13.63;3.63;;;12.70;44.60;;;;;;5041406;27;20652;-46
2022/03/19 10:01:23;;;;;;;20.23;7.28;;;12.80;44.20;;;;;;5038982;28;20063;-43
2022/03/19 10:03:50;;;;;;;19.80;6.95;;;12.80;43.70;;;;;;5035687;28;20413;-43
2022/03/19 10:09:03;;;;;;;9.23;3.38;;;12.90;43.40;;;;;;5042933;28;20037;-44
2022/03/19 10:11:32;;;;;;;9.57;3.28;;;13.00;43.40;;;;;;5036495;28;20060;-43
2022/03/19 10:14:05;;;;;;;8.00;3.25;;;13.00;43.50;;;;;;5036648;28;20083;-43
2022/03/19 10:16:36;;;;;;;8.13;3.20;;;13.00;43.20;;;;;;5036321;28;20053;-42
2022/03/19 10:19:06;;;;;;;7.85;3.22;;;13.10;43.10;;;;;;5034481;28;20421;-43
2022/03/19 10:21:37;;;;;;;6.13;3.03;;;13.10;42.20;;;;;;5039416;28;20501;-43
2022/03/19 10:24:07;;;;;;;8.05;3.22;;;13.10;41.70;;;;;;5036772;28;20049;-42
2022/03/19 10:26:37;;;;;;;7.60;2.55;;;13.20;41.60;;;;;;5036919;28;20056;-43
2022/03/19 10:29:07;;;;;;;5.57;2.47;;;13.20;41.40;;;;;;5035510;28;20049;-43
2022/03/19 10:31:36;;;;;;;8.00;2.67;;;13.20;41.00;;;;;;5038682;28;20053;-43
2022/03/19 10:34:05;;;;;;;7.15;2.72;;;13.30;40.60;;;;;;5035055;28;20635;-42
2022/03/19 10:36:34;;;;;;;8.50;2.50;;;13.30;39.90;;;;;;5038059;28;20433;-43
2022/03/19 10:39:06;;;;;;;7.32;2.55;;;13.30;39.80;;;;;;5037030;28;20053;-44
2022/03/19 10:41:35;;;;;;;5.43;2.20;;;13.30;39.70;;;;;;5021032;28;20061;-43
2022/03/19 10:44:12;;;;;;;4.93;2.25;;;13.30;39.40;;;;;;5017292;28;20053;-43
2022/03/19 10:46:44;;;;;;;9.38;3.30;;;13.40;39.80;;;;;;5018170;28;20332;-42
2022/03/19 10:49:15;;;;;;;8.73;2.33;;;13.40;40.10;;;;;;5015632;28;20529;-43
2022/03/19 10:51:45;;;;;;;5.65;2.40;;;13.40;38.80;;;;;;5019262;28;20060;-43
2022/03/19 10:54:14;;;;;;;5.65;2.13;;;13.40;38.90;;;;;;5016627;28;20053;-44
2022/03/19 10:56:42;;;;;;;4.70;2.17;;;13.50;38.30;;;;;;5018946;28;20049;-45
2022/03/19 10:59:11;;;;;;;5.97;2.00;;;13.50;37.60;;;;;;5019014;28;20053;-42
2022/03/19 11:01:40;;;;;;;3.35;1.52;;;13.50;36.50;;;;;;5018891;28;20508;-44
2022/03/19 11:04:09;;;;;;;9.82;2.88;;;13.50;36.20;;;;;;5015807;28;20053;-43
2022/03/19 11:06:38;;;;;;;3.90;1.70;;;13.50;35.80;;;;;;5017909;28;20054;-45
2022/03/19 11:09:09;;;;;;;4.05;1.50;;;13.50;35.50;;;;;;5011789;28;20053;-43
2022/03/19 11:11:45;;;;;;;5.32;2.08;;;13.50;35.10;;;;;;5003882;28;20375;-44
2022/03/19 11:14:19;;;;;;;4.50;1.40;;;13.60;34.90;;;;;;5002267;28;20062;-43
2022/03/19 11:17:23;;;;;;;4.38;1.85;;;13.50;34.90;;;;;;5002505;28;20054;-43
2022/03/19 11:19:39;;;;;;;2.25;1.38;;;13.50;34.90;;;;;;5002500;28;20057;-43
2022/03/19 11:22:07;;;;;;;7.70;1.60;;;13.50;34.90;;;;;;5005848;28;20509;-43
2022/03/19 11:24:44;;;;;;;4.53;1.13;;;13.60;35.30;;;;;;5003233;28;20053;-45
2022/03/19 11:27:12;;;;;;;4.57;1.50;;;13.60;34.70;;;;;;5004814;28;20057;-43
2022/03/19 11:29:42;;;;;;;5.20;1.40;;;13.60;34.70;;;;;;5005231;28;20058;-43
2022/03/19 11:32:22;;;;;;;3.38;1.20;;;13.70;33.70;;;;;;5005428;28;20057;-43
2022/03/19 11:34:51;;;;;;;4.40;1.23;;;13.70;32.90;;;;;;5001620;28;20058;-43
2022/03/19 11:37:18;;;;;;;3.28;1.10;;;13.70;33.10;;;;;;5004996;28;20478;-42
2022/03/19 11:40:06;;;;;;;5.47;1.30;;;13.80;33.80;;;;;;5005145;28;20058;-43
2022/03/19 11:42:34;;;;;;;3.20;1.23;;;13.80;32.60;;;;;;5004728;28;20056;-43
2022/03/19 11:45:10;;;;;;;4.40;1.13;;;13.80;33.20;;;;;;5001491;28;20058;-43
2022/03/19 11:47:39;;;;;;;6.13;1.50;;;13.80;32.20;;;;;;5004009;28;20057;-43
2022/03/19 11:50:19;;;;;;;6.15;1.52;;;13.90;32.70;;;;;;5003184;28;20053;-46
2022/03/19 11:53:03;;;;;;;4.18;1.48;;;13.90;32.80;;;;;;5004831;28;20426;-43
2022/03/19 11:55:38;;;;;;;3.70;1.23;;;14.00;32.80;;;;;;5002509;28;20050;-43
2022/03/19 11:58:09;;;;;;;3.47;1.38;;;14.00;32.60;;;;;;5004336;28;20683;-43
2022/03/19 12:00:41;;;;;;;3.60;1.20;;;14.00;32.70;;;;;;5004703;28;20064;-43
2022/03/19 12:03:11;;;;;;;5.82;1.10;;;14.00;32.80;;;;;;5004100;28;20062;-43
2022/03/19 12:05:42;;;;;;;5.22;1.40;;;14.00;32.90;;;;;;5003077;28;20065;-43
2022/03/19 12:08:13;;;;;;;5.53;1.00;;;14.10;32.70;;;;;;5004805;28;20505;-43
2022/03/19 12:10:57;;;;;;;3.88;1.40;;;14.10;32.70;;;;;;5003705;28;20513;-45
2022/03/19 12:13:42;;;;;;;;;;;14.10;31.10;;;;;;5000831;28;20406;-43
2022/03/19 12:16:12;;;;;;;4.93;1.35;;;14.20;31.70;;;;;;5002433;28;19928;-43
2022/03/19 12:18:46;;;;;;;4.28;2.13;;;14.20;31.60;;;;;;5002227;28;20053;-43
2022/03/19 12:21:21;;;;;;;2.63;1.38;;;14.20;31.60;;;;;;5003211;28;20062;-43
2022/03/19 12:24:02;;;;;;;4.28;1.20;;;14.20;31.50;;;;;;5003298;28;20061;-43
2022/03/19 12:26:38;;;;;;;4.20;1.50;;;14.20;31.10;;;;;;5003146;28;20049;-43
2022/03/19 12:29:06;;;;;;;2.30;1.10;;;14.20;31.30;;;;;;5003291;28;20053;-42
2022/03/19 12:31:37;;;;;;;4.65;1.40;;;14.20;31.40;;;;;;5003343;28;20060;-42
2022/03/19 12:34:06;;;;;;;5.25;2.05;;;14.20;31.70;;;;;;4997773;28;20440;-42
2022/03/19 12:36:33;;;;;;;4.72;1.80;;;14.20;31.70;;;;;;5003612;28;20065;-43
2022/03/19 12:39:03;;;;;;;4.32;1.60;;;14.30;31.50;;;;;;5004082;28;20056;-43
2022/03/19 12:41:32;;;;;;;5.15;1.40;;;14.30;31.80;;;;;;5004176;28;20077;-46
2022/03/19 12:44:01;;;;;;;2.97;1.10;;;14.30;31.70;;;;;;4998124;28;20065;-43
2022/03/19 12:46:30;;;;;;;4.45;1.13;;;14.30;32.00;;;;;;5001878;28;20405;-43
2022/03/19 12:49:08;;;;;;;6.35;2.00;;;14.30;32.00;;;;;;5000475;28;20057;-43
2022/03/19 12:51:38;;;;;;;4.30;1.30;;;14.30;31.70;;;;;;5001766;28;20053;-43
2022/03/19 12:54:18;;;;;;;2.72;1.00;;;14.30;31.30;;;;;;4996866;28;20101;-43
2022/03/19 12:56:46;;;;;;;2.83;1.10;;;14.40;30.30;;;;;;4999003;28;20060;-44
2022/03/19 12:59:19;;;;;;;2.90;1.13;;;14.40;30.70;;;;;;5002850;28;20061;-42
2022/03/19 13:01:48;;;;;;;3.50;0.90;;;14.40;30.70;;;;;;5003788;28;20413;-43
2022/03/19 13:04:25;;;;;;;2.28;0.80;;;14.40;30.10;;;;;;4998050;28;20490;-42
2022/03/19 13:06:53;;;;;;;2.85;0.80;;;14.40;29.50;;;;;;5002854;28;20058;-43
2022/03/19 13:09:31;;;;;;;2.63;0.98;;;14.40;29.90;;;;;;5002501;28;20054;-43
2022/03/19 13:12:00;;;;;;;4.38;1.00;;;14.40;29.70;;;;;;5002616;28;20054;-44
2022/03/19 13:14:28;;;;;;;3.30;1.13;;;14.50;29.40;;;;;;4998295;28;20064;-43
2022/03/19 13:16:56;;;;;;;3.83;1.13;;;14.40;29.30;;;;;;5000563;28;20058;-42